createdAt,value
2022-10-22T00:00:35.411Z,15.37
2022-10-22T00:03:03.196Z,15.39
2022-10-22T00:05:30.706Z,15.25
2022-10-22T00:07:58.163Z,15.20
2022-10-22T00:10:25.824Z,15.37
2022-10-22T00:12:53.377Z,15.47
2022-10-22T00:15:20.813Z,15.35
2022-10-22T00:17:49.673Z,15.49
2022-10-22T00:20:17.103Z,15.37
2022-10-22T00:22:44.615Z,15.49
2022-10-22T00:25:12.341Z,15.50
2022-10-22T00:27:39.935Z,15.57
2022-10-22T00:30:08.965Z,15.53
2022-10-22T00:32:36.719Z,15.65
2022-10-22T00:35:04.776Z,15.58
2022-10-22T00:37:32.200Z,15.60
2022-10-22T00:39:59.889Z,15.68
2022-10-22T00:42:30.259Z,15.56
2022-10-22T00:45:09.823Z,15.63
2022-10-22T00:47:38.014Z,15.67
2022-10-22T00:50:09.237Z,15.50
2022-10-22T00:52:37.001Z,15.47
2022-10-22T00:55:05.422Z,15.46
2022-10-22T00:57:34.491Z,15.50
2022-10-22T01:00:02.233Z,15.53
2022-10-22T01:02:29.658Z,15.49
2022-10-22T01:04:57.063Z,15.52
2022-10-22T01:07:26.150Z,15.49
2022-10-22T01:10:09.415Z,15.39
2022-10-22T01:12:45.105Z,15.48
2022-10-22T01:15:57.647Z,15.46
2022-10-22T01:18:49.391Z,15.49
2022-10-22T01:21:42.449Z,15.41
2022-10-22T01:24:21.599Z,15.43
2022-10-22T01:27:07.745Z,15.30
2022-10-22T01:29:47.014Z,15.28
2022-10-22T01:32:18.205Z,15.02
2022-10-22T01:34:50.210Z,15.03
2022-10-22T01:37:18.743Z,15.03
2022-10-22T01:39:47.252Z,15.00
2022-10-22T01:42:14.871Z,14.96
2022-10-22T01:44:42.306Z,15.02
2022-10-22T01:47:31.619Z,14.93
2022-10-22T01:50:02.909Z,14.97
2022-10-22T01:52:42.046Z,14.81
2022-10-22T01:55:28.889Z,14.86
2022-10-22T01:58:30.145Z,15.02
2022-10-22T02:01:03.744Z,14.63
2022-10-22T02:03:40.472Z,14.34
2022-10-22T02:06:14.217Z,14.42
2022-10-22T02:08:42.371Z,14.30
2022-10-22T02:11:12.314Z,14.53
2022-10-22T02:13:44.368Z,14.79
2022-10-22T02:16:15.707Z,14.95
2022-10-22T02:18:45.535Z,15.00
2022-10-22T02:21:13.490Z,15.11
2022-10-22T02:23:41.035Z,15.14
2022-10-22T02:26:27.187Z,15.11
2022-10-22T02:29:12.168Z,15.05
2022-10-22T02:31:41.073Z,15.16
2022-10-22T02:34:11.761Z,15.25
2022-10-22T02:36:40.664Z,15.21
2022-10-22T02:39:08.492Z,15.18
2022-10-22T02:41:37.789Z,15.27
2022-10-22T02:44:09.105Z,15.30
2022-10-22T02:46:40.385Z,15.21
2022-10-22T02:49:07.783Z,15.08
2022-10-22T02:51:35.170Z,15.06
2022-10-22T02:54:02.853Z,15.06
2022-10-22T02:56:30.316Z,15.03
2022-10-22T02:58:58.099Z,15.12
2022-10-22T03:01:25.869Z,15.11
2022-10-22T03:03:53.324Z,15.08
2022-10-22T03:06:21.293Z,15.10
2022-10-22T03:08:49.052Z,15.00
2022-10-22T03:11:16.482Z,14.95
2022-10-22T03:13:43.918Z,14.99
2022-10-22T03:16:11.613Z,14.93
2022-10-22T03:18:39.000Z,14.86
2022-10-22T03:21:11.469Z,14.99
2022-10-22T03:23:40.979Z,14.93
2022-10-22T03:26:09.091Z,14.93
2022-10-22T03:28:37.268Z,14.87
2022-10-22T03:31:05.001Z,14.51
2022-10-22T03:33:32.466Z,14.82
2022-10-22T03:36:00.734Z,14.74
2022-10-22T03:38:29.006Z,14.59
2022-10-22T03:40:56.443Z,14.54
2022-10-22T03:43:23.818Z,14.43
2022-10-22T03:45:51.458Z,14.07
2022-10-22T03:48:19.969Z,13.87
2022-10-22T03:50:47.367Z,13.85
2022-10-22T03:53:15.037Z,14.06
2022-10-22T03:55:42.446Z,14.10
2022-10-22T03:58:09.882Z,14.17
2022-10-22T04:00:37.759Z,14.21
2022-10-22T04:03:05.452Z,14.13
2022-10-22T04:05:34.100Z,14.23
2022-10-22T04:08:01.708Z,14.30
2022-10-22T04:10:29.556Z,14.32
2022-10-22T04:12:56.979Z,14.24
2022-10-22T04:15:26.891Z,14.20
2022-10-22T04:17:54.860Z,14.30
2022-10-22T04:20:22.266Z,14.30
2022-10-22T04:22:49.744Z,14.06
2022-10-22T04:25:17.430Z,14.11
2022-10-22T04:27:44.798Z,14.15
2022-10-22T04:30:13.224Z,14.20
2022-10-22T04:32:40.987Z,14.23
2022-10-22T04:35:08.609Z,14.21
2022-10-22T04:37:36.224Z,14.23
2022-10-22T04:40:04.557Z,14.16
2022-10-22T04:42:31.979Z,14.15
2022-10-22T04:44:59.386Z,14.08
2022-10-22T04:47:27.242Z,13.88
2022-10-22T04:49:54.644Z,13.98
2022-10-22T04:52:22.042Z,13.77
2022-10-22T04:54:49.688Z,13.80
2022-10-22T04:57:17.094Z,13.85
2022-10-22T04:59:44.486Z,13.90
2022-10-22T05:02:12.210Z,13.83
2022-10-22T05:04:39.697Z,13.54
2022-10-22T05:07:07.064Z,13.75
2022-10-22T05:09:34.794Z,13.75
2022-10-22T05:12:03.258Z,13.74
2022-10-22T05:14:30.694Z,13.79
2022-10-22T05:16:58.497Z,13.78
2022-10-22T05:19:27.788Z,13.74
2022-10-22T05:21:58.005Z,13.85
2022-10-22T05:24:26.689Z,13.73
2022-10-22T05:26:55.823Z,13.89
2022-10-22T05:29:23.550Z,13.95
2022-10-22T05:31:51.282Z,13.88
2022-10-22T05:34:19.039Z,13.97
2022-10-22T05:36:46.565Z,13.90
2022-10-22T05:39:14.257Z,13.95
2022-10-22T05:41:41.781Z,13.93
2022-10-22T05:44:11.613Z,13.96
2022-10-22T05:46:39.633Z,14.02
2022-10-22T05:49:07.993Z,14.02
2022-10-22T05:51:36.610Z,14.03
2022-10-22T05:54:06.567Z,14.01
2022-10-22T05:56:34.600Z,13.94
2022-10-22T06:01:33.126Z,13.94
2022-10-22T06:04:02.168Z,13.96
2022-10-22T06:06:32.985Z,14.04
2022-10-22T06:09:04.223Z,13.99
2022-10-22T06:11:34.313Z,13.98
2022-10-22T06:14:04.068Z,14.03
2022-10-22T06:16:32.180Z,14.05
2022-10-22T06:19:02.112Z,14.14
2022-10-22T06:21:30.483Z,14.14
2022-10-22T06:23:58.923Z,14.13
2022-10-22T06:26:26.617Z,14.16
2022-10-22T06:28:56.057Z,14.24
2022-10-22T06:31:24.754Z,14.28
2022-10-22T06:33:52.214Z,14.16
2022-10-22T06:36:21.887Z,14.36
2022-10-22T06:38:52.537Z,14.51
2022-10-22T06:41:22.167Z,14.65
2022-10-22T06:43:51.997Z,14.71
2022-10-22T06:46:21.281Z,14.78
2022-10-22T06:48:53.502Z,14.75
2022-10-22T06:51:21.298Z,14.91
2022-10-22T06:53:49.157Z,14.99
2022-10-22T06:56:20.030Z,15.09
2022-10-22T06:58:48.748Z,14.82
2022-10-22T07:01:18.251Z,14.95
2022-10-22T07:03:46.140Z,15.04
2022-10-22T07:06:15.054Z,15.29
2022-10-22T07:08:42.803Z,15.25
2022-10-22T07:11:23.423Z,15.29
2022-10-22T07:13:54.439Z,15.27
2022-10-22T07:16:22.339Z,15.36
2022-10-22T07:18:50.264Z,15.37
2022-10-22T07:21:19.284Z,15.30
2022-10-22T07:23:46.856Z,15.68
2022-10-22T07:26:16.180Z,15.48
2022-10-22T07:28:43.989Z,15.52
2022-10-22T07:31:13.252Z,15.53
2022-10-22T07:33:40.680Z,15.45
2022-10-22T07:36:11.187Z,15.68
2022-10-22T07:38:38.611Z,15.87
2022-10-22T07:41:06.172Z,15.58
2022-10-22T07:43:33.941Z,15.67
2022-10-22T07:46:02.842Z,16.07
2022-10-22T07:48:30.465Z,16.41
2022-10-22T07:50:58.399Z,16.27
2022-10-22T07:53:25.842Z,15.89
2022-10-22T07:55:53.536Z,16.20
2022-10-22T07:58:22.234Z,16.72
2022-10-22T08:00:50.751Z,16.90
2022-10-22T08:03:18.706Z,16.79
2022-10-22T08:05:46.182Z,17.09
2022-10-22T08:08:14.770Z,16.96
2022-10-22T08:10:43.072Z,16.86
2022-10-22T08:13:10.658Z,17.22
2022-10-22T08:15:38.580Z,17.23
2022-10-22T08:18:06.345Z,17.05
2022-10-22T08:20:33.844Z,17.15
2022-10-22T08:23:01.385Z,16.82
2022-10-22T08:25:29.067Z,16.70
2022-10-22T08:27:56.524Z,17.01
2022-10-22T08:30:27.782Z,16.71
2022-10-22T08:32:56.026Z,17.25
2022-10-22T08:35:23.534Z,17.45
2022-10-22T08:37:51.010Z,17.40
2022-10-22T08:40:34.673Z,17.31
2022-10-22T08:43:13.577Z,17.64
2022-10-22T08:45:46.421Z,17.57
2022-10-22T08:48:14.495Z,17.58
2022-10-22T08:50:46.909Z,17.01
2022-10-22T08:53:19.408Z,17.55
2022-10-22T08:55:48.132Z,17.63
2022-10-22T08:58:50.455Z,17.84
2022-10-22T09:01:27.535Z,17.48
2022-10-22T09:04:07.429Z,17.61
2022-10-22T09:06:37.283Z,17.26
2022-10-22T09:09:11.966Z,17.82
2022-10-22T09:11:42.434Z,17.92
2022-10-22T09:17:01.700Z,17.67
2022-10-22T09:19:55.482Z,17.37
2022-10-22T09:22:45.277Z,17.63
2022-10-22T09:25:32.020Z,16.92
2022-10-22T09:27:59.805Z,16.91
2022-10-22T09:30:29.940Z,17.18
2022-10-22T09:33:13.190Z,17.36
2022-10-22T09:35:51.198Z,17.47
2022-10-22T09:38:21.442Z,17.71
2022-10-22T09:40:52.088Z,17.84
2022-10-22T09:43:19.998Z,17.84
2022-10-22T09:45:48.518Z,17.86
2022-10-22T09:48:28.421Z,17.89
2022-10-22T09:51:19.589Z,17.80
2022-10-22T09:53:58.345Z,17.68
2022-10-22T09:56:55.645Z,18.05
2022-10-22T09:59:37.016Z,18.12
2022-10-22T10:02:26.637Z,17.23
2022-10-22T10:05:03.767Z,17.56
2022-10-22T10:07:32.413Z,17.77
2022-10-22T10:09:59.950Z,17.63
2022-10-22T10:15:21.060Z,17.91
2022-10-22T10:18:04.117Z,17.89
2022-10-22T10:20:46.812Z,17.85
2022-10-22T10:23:27.024Z,17.55
2022-10-22T10:26:19.387Z,17.70
2022-10-22T10:28:50.125Z,17.82
2022-10-22T10:31:50.027Z,18.00
2022-10-22T10:34:29.785Z,17.55
2022-10-22T10:37:16.303Z,17.85
2022-10-22T10:40:14.664Z,17.61
2022-10-22T10:43:04.290Z,17.76
2022-10-22T10:45:39.665Z,17.85
2022-10-22T10:48:15.250Z,18.11
2022-10-22T10:50:56.118Z,18.04
2022-10-22T10:53:41.060Z,18.22
2022-10-22T10:56:47.807Z,18.00
2022-10-22T10:59:33.976Z,18.37
2022-10-22T11:02:25.967Z,18.46
2022-10-22T11:05:14.565Z,18.36
2022-10-22T11:07:52.124Z,18.24
2022-10-22T11:10:28.324Z,18.22
2022-10-22T11:13:10.931Z,18.32
2022-10-22T11:15:39.955Z,18.32
2022-10-22T11:18:40.376Z,18.05
2022-10-22T11:21:13.472Z,18.39
2022-10-22T11:23:56.413Z,18.36
2022-10-22T11:26:48.562Z,17.83
2022-10-22T11:29:27.223Z,17.80
2022-10-22T11:31:57.487Z,18.10
2022-10-22T11:34:34.259Z,17.99
2022-10-22T11:37:04.150Z,18.35
2022-10-22T11:39:33.758Z,18.30
2022-10-22T11:42:07.279Z,18.51
2022-10-22T11:44:46.717Z,18.50
2022-10-22T11:47:21.132Z,18.57
2022-10-22T11:50:16.037Z,18.54
2022-10-22T11:53:04.899Z,18.72
2022-10-22T11:55:48.445Z,18.52
2022-10-22T11:58:44.009Z,18.63
2022-10-22T12:01:11.595Z,18.30
2022-10-22T12:03:50.734Z,18.48
2022-10-22T12:06:23.156Z,18.45
2022-10-22T12:08:54.160Z,18.25
2022-10-22T12:11:47.816Z,18.33
2022-10-22T12:14:28.094Z,18.67
2022-10-22T12:17:07.694Z,18.85
2022-10-22T12:19:43.612Z,18.96
2022-10-22T12:22:19.120Z,18.89
2022-10-22T12:24:54.766Z,19.05
2022-10-22T12:27:26.077Z,19.02
2022-10-22T12:29:56.287Z,19.15
2022-10-22T12:32:29.335Z,19.22
2022-10-22T12:34:56.992Z,19.29
2022-10-22T12:37:24.371Z,19.24
2022-10-22T12:39:51.867Z,19.26
2022-10-22T12:42:19.589Z,19.31
2022-10-22T12:44:47.015Z,19.40
2022-10-22T12:47:17.011Z,19.39
2022-10-22T12:49:47.809Z,19.29
2022-10-22T12:52:18.749Z,19.28
2022-10-22T12:54:48.313Z,19.29
2022-10-22T12:57:17.725Z,19.34
2022-10-22T12:59:49.964Z,19.33
2022-10-22T13:02:17.817Z,19.32
2022-10-22T13:05:14.612Z,19.37
2022-10-22T13:07:47.063Z,19.38
2022-10-22T13:10:19.324Z,19.39
2022-10-22T13:12:50.755Z,19.41
2022-10-22T13:15:22.589Z,19.35
2022-10-22T13:17:50.413Z,19.31
2022-10-22T13:20:21.626Z,19.30
2022-10-22T13:23:00.548Z,19.35
2022-10-22T13:25:33.711Z,19.34
2022-10-22T13:28:04.052Z,19.22
2022-10-22T13:30:35.081Z,19.25
2022-10-22T13:33:36.079Z,19.24
2022-10-22T13:36:04.215Z,19.28
2022-10-22T13:38:31.728Z,19.17
2022-10-22T13:40:59.503Z,19.24
2022-10-22T13:43:27.547Z,18.95
2022-10-22T13:45:58.470Z,19.11
2022-10-22T13:48:26.849Z,18.56
2022-10-22T13:50:54.670Z,18.62
2022-10-22T13:53:24.446Z,18.75
2022-10-22T13:55:52.197Z,18.80
2022-10-22T13:58:23.890Z,18.75
2022-10-22T14:00:57.086Z,18.50
2022-10-22T14:03:33.356Z,18.29
2022-10-22T14:06:01.472Z,17.82
2022-10-22T14:08:29.633Z,17.85
2022-10-22T14:10:57.116Z,17.95
2022-10-22T14:13:24.545Z,17.26
2022-10-22T14:15:52.941Z,17.66
2022-10-22T14:18:27.316Z,17.75
2022-10-22T14:21:00.102Z,18.13
2022-10-22T14:23:30.009Z,17.87
2022-10-22T14:25:59.316Z,17.66
2022-10-22T14:28:27.138Z,18.32
2022-10-22T14:30:55.006Z,18.29
2022-10-22T14:33:31.914Z,18.42
2022-10-22T14:36:00.679Z,18.39
2022-10-22T14:38:29.107Z,17.80
2022-10-22T14:40:57.807Z,17.81
2022-10-22T14:43:27.757Z,18.30
2022-10-22T14:45:55.534Z,18.02
2022-10-22T14:48:23.974Z,18.18
2022-10-22T14:50:51.692Z,18.04
2022-10-22T14:53:19.484Z,18.15
2022-10-22T14:55:48.991Z,18.39
2022-10-22T14:58:16.479Z,18.45
2022-10-22T15:00:44.390Z,18.33
2022-10-22T15:03:11.983Z,18.11
2022-10-22T15:05:45.796Z,18.27
2022-10-22T15:08:14.547Z,17.48
2022-10-22T15:10:42.506Z,17.96
2022-10-22T15:13:10.059Z,17.78
2022-10-22T15:15:41.243Z,17.97
2022-10-22T15:18:08.847Z,17.57
2022-10-22T15:20:36.342Z,17.84
2022-10-22T15:23:04.162Z,17.63
2022-10-22T15:25:31.790Z,17.78
2022-10-22T15:28:03.415Z,17.47
2022-10-22T15:30:37.143Z,17.18
2022-10-22T15:33:04.780Z,17.65
2022-10-22T15:35:32.367Z,17.50
2022-10-22T15:38:00.233Z,17.01
2022-10-22T15:40:27.711Z,17.05
2022-10-22T15:42:55.268Z,17.61
2022-10-22T15:45:25.013Z,17.48
2022-10-22T15:47:52.556Z,17.73
2022-10-22T15:50:20.010Z,17.65
2022-10-22T15:52:47.975Z,17.38
2022-10-22T15:55:15.777Z,17.30
2022-10-22T15:57:44.046Z,17.63
2022-10-22T16:00:12.717Z,16.85
2022-10-22T16:02:40.313Z,17.28
2022-10-22T16:05:08.447Z,16.32
2022-10-22T16:07:35.933Z,16.92
2022-10-22T16:10:04.359Z,16.52
2022-10-22T16:12:32.024Z,16.94
2022-10-22T16:14:59.466Z,16.99
2022-10-22T16:17:26.903Z,17.15
2022-10-22T16:19:54.704Z,17.00
2022-10-22T16:22:22.266Z,17.11
2022-10-22T16:24:49.670Z,17.13
2022-10-22T16:27:17.573Z,17.22
2022-10-22T16:29:45.156Z,17.25
2022-10-22T16:32:13.305Z,16.93
2022-10-22T16:34:42.232Z,17.10
2022-10-22T16:37:12.617Z,16.82
2022-10-22T16:39:40.025Z,16.87
2022-10-22T16:42:07.742Z,16.77
2022-10-22T16:44:35.236Z,16.51
2022-10-22T16:47:02.706Z,16.97
2022-10-22T16:49:30.576Z,16.76
2022-10-22T16:51:58.274Z,16.89
2022-10-22T16:54:26.335Z,16.61
2022-10-22T16:56:54.110Z,16.88
2022-10-22T16:59:21.573Z,16.94
2022-10-22T17:01:49.115Z,16.75
2022-10-22T17:04:17.533Z,16.84
2022-10-22T17:06:45.122Z,16.87
2022-10-22T17:09:13.598Z,16.76
2022-10-22T17:11:42.688Z,16.98
2022-10-22T17:14:11.984Z,16.88
2022-10-22T17:16:39.477Z,16.61
2022-10-22T17:19:07.308Z,16.92
2022-10-22T17:21:35.024Z,16.93
2022-10-22T17:24:02.673Z,16.98
2022-10-22T17:26:33.241Z,16.92
2022-10-22T17:29:00.933Z,16.84
2022-10-22T17:31:32.683Z,16.77
2022-10-22T17:34:00.614Z,16.85
2022-10-22T17:36:31.790Z,16.59
2022-10-22T17:39:05.357Z,16.61
2022-10-22T17:41:35.381Z,16.45
2022-10-22T17:44:05.407Z,16.61
2022-10-22T17:46:33.043Z,16.60
2022-10-22T17:49:04.013Z,16.64
2022-10-22T17:51:32.055Z,16.62
2022-10-22T17:53:59.720Z,16.71
2022-10-22T17:56:29.981Z,16.73
2022-10-22T17:58:59.815Z,16.76
2022-10-22T18:01:31.642Z,16.78
2022-10-22T18:04:01.812Z,16.71
2022-10-22T18:06:30.127Z,16.61
2022-10-22T18:08:57.707Z,16.66
2022-10-22T18:11:27.192Z,16.70
2022-10-22T18:13:56.746Z,16.73
2022-10-22T18:16:25.133Z,16.58
2022-10-22T18:18:56.889Z,16.62
2022-10-22T18:21:27.818Z,16.54
2022-10-22T18:23:57.124Z,16.64
2022-10-22T18:26:26.875Z,16.70
2022-10-22T18:28:56.894Z,16.66
2022-10-22T18:31:25.877Z,16.67
2022-10-22T18:36:27.669Z,16.61
2022-10-22T18:38:57.507Z,16.66
2022-10-22T18:41:26.088Z,16.59
2022-10-22T18:43:56.079Z,16.54
2022-10-22T18:46:24.223Z,16.57
2022-10-22T18:48:58.828Z,16.58
2022-10-22T18:51:30.183Z,16.56
2022-10-22T18:54:05.758Z,16.61
2022-10-22T18:56:47.145Z,16.65
2022-10-22T18:59:23.050Z,16.64
2022-10-22T19:01:57.570Z,16.48
2022-10-22T19:04:31.004Z,16.38
2022-10-22T19:07:05.579Z,16.42
2022-10-22T19:09:33.133Z,16.39
2022-10-22T19:12:01.099Z,16.44
2022-10-22T19:14:28.720Z,16.36
2022-10-22T19:16:56.348Z,15.98
2022-10-22T19:19:24.613Z,16.16
2022-10-22T19:21:52.211Z,16.10
2022-10-22T19:24:20.339Z,16.12
2022-10-22T19:26:48.962Z,16.05
2022-10-22T19:29:18.151Z,16.00
2022-10-22T19:31:47.660Z,15.93
2022-10-22T19:34:15.533Z,15.91
2022-10-22T19:36:43.137Z,15.95
2022-10-22T19:39:10.860Z,15.94
2022-10-22T19:41:38.937Z,15.95
2022-10-22T19:44:06.517Z,15.97
2022-10-22T19:46:34.215Z,15.85
2022-10-22T19:49:02.789Z,15.86
2022-10-22T19:51:31.344Z,15.92
2022-10-22T19:54:04.892Z,15.85
2022-10-22T19:56:33.841Z,15.91
2022-10-22T19:59:02.733Z,15.81
2022-10-22T20:01:31.897Z,15.86
2022-10-22T20:04:01.457Z,15.66
2022-10-22T20:06:29.728Z,15.86
2022-10-22T20:08:58.179Z,15.92
2022-10-22T20:11:28.728Z,15.81
2022-10-22T20:13:57.262Z,15.69
2022-10-22T20:16:28.649Z,15.66
2022-10-22T20:19:01.547Z,15.72
2022-10-22T20:21:29.227Z,15.57
2022-10-22T20:23:57.769Z,15.71
2022-10-22T20:26:28.187Z,15.46
2022-10-22T20:28:57.646Z,15.68
2022-10-22T20:31:28.569Z,15.65
2022-10-22T20:34:01.167Z,15.76
2022-10-22T20:36:30.478Z,15.80
2022-10-22T20:39:03.372Z,15.78
2022-10-22T20:41:33.989Z,15.60
2022-10-22T20:44:01.642Z,15.86
2022-10-22T20:46:31.100Z,15.83
2022-10-22T20:49:10.087Z,15.77
2022-10-22T20:51:38.118Z,15.82
2022-10-22T20:54:07.545Z,15.88
2022-10-22T20:56:36.051Z,15.93
2022-10-22T20:59:04.714Z,15.87
2022-10-22T21:01:40.369Z,15.86
2022-10-22T21:04:08.868Z,15.80
2022-10-22T21:06:38.291Z,15.86
2022-10-22T21:09:11.069Z,15.87
2022-10-22T21:11:40.263Z,15.76
2022-10-22T21:14:09.267Z,15.88
2022-10-22T21:16:40.920Z,15.93
2022-10-22T21:19:08.824Z,15.65
2022-10-22T21:21:36.261Z,15.73
2022-10-22T21:24:03.955Z,15.95
2022-10-22T21:26:31.779Z,15.53
2022-10-22T21:28:59.243Z,15.80
2022-10-22T21:31:27.845Z,15.82
2022-10-22T21:33:55.666Z,15.91
2022-10-22T21:36:25.026Z,15.81
2022-10-22T21:38:52.855Z,15.71
2022-10-22T21:41:22.559Z,15.79
2022-10-22T21:43:50.401Z,15.84
2022-10-22T21:46:20.340Z,15.81
2022-10-22T21:48:52.833Z,15.84
2022-10-22T21:51:21.010Z,15.89
2022-10-22T21:53:49.027Z,15.88
2022-10-22T21:56:19.155Z,15.86
2022-10-22T21:58:46.937Z,15.71
2022-10-22T22:01:14.966Z,15.16
2022-10-22T22:03:44.491Z,15.27
2022-10-22T22:06:12.486Z,15.38
2022-10-22T22:08:40.423Z,15.23
2022-10-22T22:11:09.336Z,15.53
2022-10-22T22:13:37.171Z,14.93
2022-10-22T22:16:07.967Z,15.26
2022-10-22T22:18:36.219Z,14.97
2022-10-22T22:21:09.010Z,15.11
2022-10-22T22:23:38.531Z,15.21
2022-10-22T22:26:06.434Z,15.17
2022-10-22T22:28:34.163Z,15.26
2022-10-22T22:31:02.727Z,15.14
2022-10-22T22:33:30.133Z,15.26
2022-10-22T22:36:00.367Z,14.90
2022-10-22T22:38:29.073Z,14.82
2022-10-22T22:40:59.329Z,14.85
2022-10-22T22:43:26.949Z,14.48
2022-10-22T22:46:06.636Z,14.74
2022-10-22T22:48:34.800Z,14.54
2022-10-22T22:51:06.370Z,14.34
2022-10-22T22:53:34.864Z,14.34
2022-10-22T22:56:09.386Z,14.51
2022-10-22T22:58:37.886Z,14.30
2022-10-22T23:01:19.262Z,14.24
2022-10-22T23:03:58.674Z,14.32
2022-10-22T23:06:28.506Z,14.07
2022-10-22T23:08:56.989Z,13.81
2022-10-22T23:11:26.112Z,14.27
2022-10-22T23:13:59.548Z,13.90
2022-10-22T23:16:29.124Z,13.82
2022-10-22T23:18:57.685Z,13.97
2022-10-22T23:21:27.246Z,14.14
2022-10-22T23:23:57.446Z,13.71
2022-10-22T23:26:28.743Z,14.10
2022-10-22T23:29:01.003Z,14.11
2022-10-22T23:31:28.770Z,14.33
2022-10-22T23:33:57.392Z,14.44
2022-10-22T23:36:24.830Z,14.04
2022-10-22T23:38:52.576Z,14.27
2022-10-22T23:41:21.004Z,14.54
2022-10-22T23:43:50.133Z,14.49
2022-10-22T23:46:17.914Z,14.77
2022-10-22T23:48:45.685Z,14.51
2022-10-22T23:51:15.501Z,14.95
2022-10-22T23:53:44.310Z,14.39
2022-10-22T23:56:16.592Z,14.64
2022-10-22T23:58:44.958Z,14.65
